Stk-1004 — UBEM — position and weather

sailwx.info

Track history (hours):
 
Tides and Currents Weather Stations Pressure Air Temp Water Temp Dewpoint Dewpoint Depression Visibility Wind Speed Wind Dir Waves Ship Positions

Stk-1004

Last reported at 2015-Aug-30 00:04 UTC. Time now 2015-Sep-04 01:33 UTC.
Position N 59°52' E 030°29'.

Length 82 m; draft 3.4 m.

Type: Cargo ship. MMSI: 273439130.

Date/timePositionNaut miles runAvg speedWind from/ knotsBaromVisibWave heightAir tempDewpointWater temp
2015-Aug-30 00:04N 59°52' E 030°29'3 5.5
2015-Aug-29 23:28N 59°55' E 030°25'4 4.2
2015-Aug-29 22:33N 59°56' E 030°18'0 0.3
2015-Aug-29 21:33N 59°56' E 030°17'0 0.0
2015-Aug-29 20:33N 59°56' E 030°17'0 0.0
2015-Aug-29 19:33N 59°56' E 030°17'0 0.0
2015-Aug-29 18:33N 59°56' E 030°17'0 0.0
2015-Aug-29 17:33N 59°56' E 030°17'0 0.0
2015-Aug-29 16:33N 59°56' E 030°17'0 0.0
2015-Aug-29 15:33N 59°56' E 030°17'0 0.0
2015-Aug-29 14:33N 59°56' E 030°17'3 3.1
2015-Aug-29 13:33N 59°56' E 030°11'7 6.9
2015-Aug-29 12:34N 59°56' E 029°57'8 7.8
2015-Aug-29 11:30N 59°59' E 029°42'  
2015-Aug-27 03:04N 59°59' E 029°45'11 6.7
2015-Aug-27 01:29N 59°54' E 030°04'6 6.4
2015-Aug-27 00:30N 59°56' E 030°17'4 3.9
2015-Aug-26 23:33N 59°55' E 030°24'0 0.0
2015-Aug-26 22:33N 59°55' E 030°24'0 0.0
2015-Aug-26 21:30N 59°55' E 030°24'0 0.0
2015-Aug-26 20:33N 59°55' E 030°24'0 0.0
2015-Aug-26 19:32N 59°55' E 030°24'0 0.0
2015-Aug-26 18:32N 59°55' E 030°24'0 0.0
2015-Aug-26 17:32N 59°55' E 030°24'0 0.0
2015-Aug-26 14:29N 59°55' E 030°24'0 0.0
2015-Aug-26 13:31N 59°55' E 030°24'  
2015-Aug-20 00:31N 59°51' E 030°30'  
Track history (hours):
 
Tides and Currents Weather Stations Pressure Air Temp Water Temp Dewpoint Dewpoint Depression Visibility Wind Speed Wind Dir Waves Ship Positions

Stk-1004

Last reported at 2015-Aug-30 00:04 UTC. Time now 2015-Sep-04 01:33 UTC.
Position N 59°52' E 030°29'.

Length 82 m; draft 3.4 m.

Type: Cargo ship. MMSI: 273439130.

Date/timePositionNaut miles runAvg speedWind from/ knotsBaromVisibWave heightAir tempDewpointWater temp
2015-Aug-30 00:04N 59°52' E 030°29'3 5.5
2015-Aug-29 23:28N 59°55' E 030°25'4 4.2
2015-Aug-29 22:33N 59°56' E 030°18'0 0.3
2015-Aug-29 21:33N 59°56' E 030°17'0 0.0
2015-Aug-29 20:33N 59°56' E 030°17'0 0.0
2015-Aug-29 19:33N 59°56' E 030°17'0 0.0
2015-Aug-29 18:33N 59°56' E 030°17'0 0.0
2015-Aug-29 17:33N 59°56' E 030°17'0 0.0
2015-Aug-29 16:33N 59°56' E 030°17'0 0.0
2015-Aug-29 15:33N 59°56' E 030°17'0 0.0
2015-Aug-29 14:33N 59°56' E 030°17'3 3.1
2015-Aug-29 13:33N 59°56' E 030°11'7 6.9
2015-Aug-29 12:34N 59°56' E 029°57'8 7.8
2015-Aug-29 11:30N 59°59' E 029°42'  
2015-Aug-27 03:04N 59°59' E 029°45'11 6.7
2015-Aug-27 01:29N 59°54' E 030°04'6 6.4
2015-Aug-27 00:30N 59°56' E 030°17'4 3.9
2015-Aug-26 23:33N 59°55' E 030°24'0 0.0
2015-Aug-26 22:33N 59°55' E 030°24'0 0.0
2015-Aug-26 21:30N 59°55' E 030°24'0 0.0
2015-Aug-26 20:33N 59°55' E 030°24'0 0.0
2015-Aug-26 19:32N 59°55' E 030°24'0 0.0
2015-Aug-26 18:32N 59°55' E 030°24'0 0.0
2015-Aug-26 17:32N 59°55' E 030°24'0 0.0
2015-Aug-26 14:29N 59°55' E 030°24'0 0.0
2015-Aug-26 13:31N 59°55' E 030°24'  
2015-Aug-20 00:31N 59°51' E 030°30'  

Dump ship's entire track history